createdAt,value
2019-04-16T00:01:51.738Z,14.67
2019-04-16T00:04:42.302Z,16.70
2019-04-16T00:07:40.157Z,15.90
2019-04-16T00:10:32.121Z,16.80
2019-04-16T00:13:07.123Z,16.50
2019-04-16T00:15:41.022Z,15.20
2019-04-16T00:18:07.297Z,15.80
2019-04-16T00:20:40.158Z,15.80
2019-04-16T00:23:16.051Z,15.63
2019-04-16T00:25:44.910Z,14.63
2019-04-16T00:28:13.817Z,15.33
2019-04-16T00:30:42.679Z,14.83
2019-04-16T00:33:11.582Z,14.63
2019-04-16T00:35:40.595Z,13.77
2019-04-16T00:38:09.510Z,15.43
2019-04-16T00:40:38.362Z,15.13
2019-04-16T00:43:07.536Z,16.07
2019-04-16T00:45:36.834Z,15.63
2019-04-16T00:48:06.080Z,14.80
2019-04-16T00:50:35.038Z,15.40
2019-04-16T00:53:07.814Z,14.63
2019-04-16T00:55:34.602Z,14.13
2019-04-16T00:58:03.602Z,13.67
2019-04-16T01:00:32.521Z,16.00
2019-04-16T01:03:01.436Z,13.77
2019-04-16T01:05:35.086Z,14.93
2019-04-16T01:08:00.842Z,14.73
2019-04-16T01:10:29.685Z,15.63
2019-04-16T01:12:58.668Z,15.47
2019-04-16T01:15:29.185Z,14.97
2019-04-16T01:17:58.138Z,15.60
2019-04-16T01:20:27.068Z,16.00
2019-04-16T01:22:55.900Z,15.17
2019-04-16T01:25:24.741Z,16.77
2019-04-16T01:28:00.981Z,15.60
2019-04-16T01:30:56.259Z,16.40
2019-04-16T01:33:32.871Z,15.33
2019-04-16T01:36:08.801Z,16.30
2019-04-16T01:38:46.478Z,15.63
2019-04-16T01:41:16.549Z,16.20
2019-04-16T01:43:45.381Z,15.93
2019-04-16T01:46:14.238Z,15.50
2019-04-16T01:48:43.074Z,16.30
2019-04-16T01:51:12.649Z,14.73
2019-04-16T01:53:42.942Z,15.47
2019-04-16T01:56:11.952Z,15.67
2019-04-16T01:58:40.851Z,14.83
2019-04-16T02:01:11.156Z,15.97
2019-04-16T02:03:40.546Z,16.90
2019-04-16T02:06:09.757Z,15.90
2019-04-16T02:08:38.671Z,15.80
2019-04-16T02:11:10.653Z,15.10
2019-04-16T02:13:38.154Z,14.97
2019-04-16T02:16:07.144Z,14.73
2019-04-16T02:18:36.258Z,14.57
2019-04-16T02:21:09.524Z,14.87
2019-04-16T02:23:36.270Z,14.63
2019-04-16T02:26:05.110Z,16.10
2019-04-16T02:28:34.042Z,15.97
2019-04-16T02:31:02.878Z,15.50
2019-04-16T02:33:31.740Z,14.47
2019-04-16T02:36:00.631Z,15.30
2019-04-16T02:38:29.850Z,16.13
2019-04-16T02:40:58.704Z,15.33
2019-04-16T02:43:27.687Z,15.80
2019-04-16T02:45:58.664Z,15.30
2019-04-16T02:48:27.591Z,16.30
2019-04-16T02:51:05.352Z,16.07
2019-04-16T02:54:07.503Z,16.30
2019-04-16T02:57:02.545Z,15.53
2019-04-16T02:59:34.909Z,16.43
2019-04-16T03:02:23.116Z,16.53
2019-04-16T03:04:58.999Z,16.43
2019-04-16T03:07:28.302Z,17.03
2019-04-16T03:10:01.815Z,17.17
2019-04-16T03:12:28.168Z,17.03
2019-04-16T03:15:00.826Z,17.73
2019-04-16T03:17:53.666Z,16.93
2019-04-16T03:20:23.986Z,17.80
2019-04-16T03:22:53.494Z,15.83
2019-04-16T03:25:22.330Z,19.03
2019-04-16T03:27:51.475Z,17.50
2019-04-16T03:30:21.814Z,18.10
2019-04-16T03:32:51.455Z,17.40
2019-04-16T03:35:25.351Z,19.07
2019-04-16T03:37:51.023Z,17.57
2019-04-16T03:40:24.939Z,17.23
2019-04-16T03:42:51.970Z,17.97
2019-04-16T03:45:20.816Z,17.33
2019-04-16T03:47:51.296Z,18.27
2019-04-16T03:50:20.373Z,18.97
2019-04-16T03:52:49.325Z,18.10
2019-04-16T03:55:18.812Z,17.73
2019-04-16T03:57:47.678Z,17.67
2019-04-16T04:00:17.018Z,18.33
2019-04-16T04:02:45.859Z,17.83
2019-04-16T04:05:14.922Z,17.87
2019-04-16T04:07:44.865Z,18.37
2019-04-16T04:10:14.294Z,18.17
2019-04-16T04:12:45.680Z,17.93
2019-04-16T04:15:14.266Z,19.13
2019-04-16T04:17:43.178Z,18.27
2019-04-16T04:20:14.646Z,18.30
2019-04-16T04:22:42.933Z,19.77
2019-04-16T04:25:12.265Z,17.37
2019-04-16T04:27:43.578Z,19.30
2019-04-16T04:30:12.008Z,18.27
2019-04-16T04:32:40.918Z,16.93
2019-04-16T04:35:10.231Z,18.47
2019-04-16T04:37:39.065Z,17.30
2019-04-16T04:40:08.179Z,17.83
2019-04-16T04:42:37.024Z,18.83
2019-04-16T04:45:08.950Z,16.43
2019-04-16T04:47:37.646Z,18.30
2019-04-16T04:50:07.269Z,18.73
2019-04-16T04:52:36.722Z,19.33
2019-04-16T04:55:05.874Z,19.20
2019-04-16T04:57:35.151Z,19.20
2019-04-16T05:00:05.670Z,18.80
2019-04-16T05:02:35.390Z,18.87
2019-04-16T05:05:30.158Z,19.63
2019-04-16T05:08:00.011Z,20.20
2019-04-16T05:10:29.734Z,19.80
2019-04-16T05:12:58.877Z,19.97
2019-04-16T05:15:29.353Z,20.30
2019-04-16T05:17:58.290Z,19.53
2019-04-16T05:20:29.810Z,19.43
2019-04-16T05:22:58.201Z,20.60
2019-04-16T05:25:27.246Z,20.10
2019-04-16T05:27:56.082Z,22.10
2019-04-16T05:30:24.939Z,20.63
2019-04-16T05:32:54.119Z,21.83
2019-04-16T05:35:23.133Z,22.33
2019-04-16T05:37:52.305Z,20.07
2019-04-16T05:40:21.718Z,21.10
2019-04-16T05:42:52.605Z,20.40
2019-04-16T05:45:21.230Z,21.30
2019-04-16T05:47:50.410Z,21.03
2019-04-16T05:50:19.270Z,20.10
2019-04-16T05:52:48.113Z,21.40
2019-04-16T05:55:37.982Z,22.10
2019-04-16T05:58:06.830Z,21.97
2019-04-16T06:00:49.958Z,22.07
2019-04-16T06:03:21.844Z,21.23
2019-04-16T06:05:49.927Z,20.73
2019-04-16T06:08:18.762Z,21.93
2019-04-16T06:10:50.859Z,21.70
2019-04-16T06:13:41.371Z,21.50
2019-04-16T06:16:25.772Z,22.10
2019-04-16T06:19:11.426Z,21.10
2019-04-16T06:21:57.232Z,19.97
2019-04-16T06:24:49.242Z,20.87
2019-04-16T06:27:31.462Z,19.10
2019-04-16T06:30:19.471Z,16.80
2019-04-16T06:33:07.012Z,17.90
2019-04-16T06:35:54.111Z,17.90
2019-04-16T06:38:30.599Z,19.07
2019-04-16T06:41:06.775Z,16.50
2019-04-16T06:43:38.934Z,18.80
2019-04-16T06:46:26.175Z,19.30
2019-04-16T06:49:17.797Z,18.47
2019-04-16T06:52:15.806Z,19.10
2019-04-16T06:55:03.739Z,20.27
2019-04-16T06:57:50.495Z,20.30
2019-04-16T07:00:47.596Z,18.50
2019-04-16T07:03:41.127Z,23.83
2019-04-16T07:06:27.661Z,20.53
2019-04-16T07:09:12.490Z,21.60
2019-04-16T07:11:53.723Z,19.03
2019-04-16T07:14:15.682Z,18.67
2019-04-16T07:16:43.814Z,18.70
2019-04-16T07:19:12.760Z,17.90
2019-04-16T07:21:41.702Z,18.40
2019-04-16T07:24:10.626Z,17.60
2019-04-16T07:26:40.520Z,20.70
2019-04-16T07:29:25.554Z,18.00
2019-04-16T07:32:13.730Z,18.20
2019-04-16T07:34:59.760Z,18.13
2019-04-16T07:37:41.066Z,17.80
2019-04-16T07:40:40.786Z,17.97
2019-04-16T07:43:30.958Z,17.40
2019-04-16T07:46:23.547Z,18.47
2019-04-16T07:49:01.522Z,25.93
2019-04-16T07:51:40.854Z,23.97
2019-04-16T07:54:31.927Z,21.20
2019-04-16T07:57:00.814Z,69.07
2019-04-16T07:59:32.271Z,22.07
2019-04-16T08:02:00.474Z,16.80
2019-04-16T08:04:32.524Z,16.63
2019-04-16T08:07:00.002Z,11.97
2019-04-16T08:09:29.952Z,10.63
2019-04-16T08:11:59.421Z,8.80
2019-04-16T08:14:28.266Z,10.20
2019-04-16T08:16:57.522Z,13.30
2019-04-16T08:19:36.777Z,9.77
2019-04-16T08:21:57.142Z,8.97
2019-04-16T08:24:31.007Z,7.90
2019-04-16T08:27:00.046Z,6.90
2019-04-16T08:29:29.122Z,8.63
2019-04-16T08:31:58.631Z,7.03
2019-04-16T08:34:27.546Z,6.33
2019-04-16T08:36:56.427Z,6.27
2019-04-16T08:39:25.351Z,7.80
2019-04-16T08:41:54.282Z,6.43
2019-04-16T08:44:23.513Z,6.90
2019-04-16T08:46:52.410Z,6.20
2019-04-16T08:49:22.966Z,5.53
2019-04-16T08:51:51.922Z,5.97
2019-04-16T08:54:20.838Z,4.90
2019-04-16T08:56:50.104Z,4.73
2019-04-16T08:59:18.959Z,5.33
2019-04-16T09:01:47.902Z,4.53
2019-04-16T09:04:16.781Z,4.33
2019-04-16T09:06:47.047Z,5.10
2019-04-16T09:09:44.201Z,4.33
2019-04-16T09:12:13.759Z,5.70
2019-04-16T09:14:56.043Z,5.83
2019-04-16T09:17:25.845Z,4.60
2019-04-16T09:20:15.703Z,4.57
2019-04-16T09:22:49.196Z,4.10
2019-04-16T09:25:34.511Z,4.37
2019-04-16T09:28:25.412Z,5.67
2019-04-16T09:31:10.922Z,5.77
2019-04-16T09:34:06.550Z,5.80
2019-04-16T09:37:01.149Z,5.70
2019-04-16T09:39:57.363Z,5.10
2019-04-16T09:42:26.223Z,4.20
2019-04-16T09:44:55.481Z,5.10
2019-04-16T09:47:24.702Z,5.33
2019-04-16T09:49:53.675Z,6.37
2019-04-16T09:52:23.553Z,5.90
2019-04-16T09:54:53.529Z,5.90
2019-04-16T09:57:24.343Z,6.00
2019-04-16T09:59:57.818Z,5.33
2019-04-16T10:02:29.857Z,5.80
2019-04-16T10:04:59.062Z,7.80
2019-04-16T10:07:28.009Z,6.63
2019-04-16T10:09:57.452Z,6.97
2019-04-16T10:12:26.591Z,7.50
2019-04-16T10:14:56.228Z,8.00
2019-04-16T10:17:25.542Z,7.40
2019-04-16T10:19:54.585Z,7.10
2019-04-16T10:22:24.113Z,6.57
2019-04-16T10:25:08.757Z,7.20
2019-04-16T10:27:43.157Z,7.30
2019-04-16T10:30:25.783Z,7.13
2019-04-16T10:32:55.014Z,6.13
2019-04-16T10:35:24.372Z,5.30
2019-04-16T10:37:53.531Z,5.90
2019-04-16T10:40:43.797Z,5.33
2019-04-16T10:43:43.677Z,5.00
2019-04-16T10:46:17.085Z,5.67
2019-04-16T10:49:03.171Z,5.70
2019-04-16T10:52:09.783Z,6.97
2019-04-16T10:54:49.211Z,6.80
2019-04-16T10:57:38.418Z,5.83
2019-04-16T11:00:26.470Z,6.40
2019-04-16T11:03:08.791Z,6.00
2019-04-16T11:05:43.851Z,12.50
2019-04-16T11:08:13.746Z,6.40
2019-04-16T11:10:42.966Z,5.80
2019-04-16T11:13:17.276Z,6.83
2019-04-16T11:15:46.252Z,5.67
2019-04-16T11:18:15.196Z,5.83
2019-04-16T11:20:44.194Z,5.30
2019-04-16T11:23:13.189Z,5.43
2019-04-16T11:25:42.170Z,4.77
2019-04-16T11:28:13.802Z,4.87
2019-04-16T11:30:44.468Z,5.60
2019-04-16T11:33:13.733Z,4.70
2019-04-16T11:35:42.766Z,4.63
2019-04-16T11:38:11.714Z,4.90
2019-04-16T11:40:41.412Z,4.33
2019-04-16T11:43:10.521Z,5.33
2019-04-16T11:45:39.654Z,4.97
2019-04-16T11:48:09.073Z,7.57
2019-04-16T11:50:38.056Z,5.00
2019-04-16T11:53:07.160Z,4.37
2019-04-16T11:55:36.485Z,4.40
2019-04-16T11:58:10.604Z,4.90
2019-04-16T12:00:50.243Z,4.30
2019-04-16T12:03:29.660Z,15.20
2019-04-16T12:06:28.080Z,6.20
2019-04-16T12:09:06.101Z,3.93
2019-04-16T12:11:59.981Z,4.30
2019-04-16T12:14:42.481Z,4.90
2019-04-16T12:17:19.085Z,6.00
2019-04-16T12:20:22.128Z,3.77
2019-04-16T12:23:13.162Z,3.83
2019-04-16T12:25:50.987Z,3.37
2019-04-16T12:28:30.330Z,3.50
2019-04-16T12:31:20.086Z,4.30
2019-04-16T12:34:25.642Z,3.60
2019-04-16T12:37:16.596Z,5.13
2019-04-16T12:40:10.357Z,3.33
2019-04-16T12:42:56.737Z,3.60
2019-04-16T12:45:43.539Z,3.33
2019-04-16T12:48:24.597Z,3.43
2019-04-16T12:51:03.214Z,3.47
2019-04-16T12:53:42.806Z,3.27
2019-04-16T12:56:40.118Z,3.30
2019-04-16T12:59:28.118Z,3.40
2019-04-16T13:02:15.716Z,3.10
2019-04-16T13:05:06.664Z,3.00
2019-04-16T13:07:44.202Z,3.37
2019-04-16T13:10:16.666Z,3.20
2019-04-16T13:13:03.070Z,3.37
2019-04-16T13:15:49.130Z,2.90
2019-04-16T13:18:43.039Z,3.53
2019-04-16T13:21:24.418Z,3.70
2019-04-16T13:24:17.214Z,3.30
2019-04-16T13:26:55.587Z,3.70
2019-04-16T13:29:29.506Z,3.47
2019-04-16T13:31:57.252Z,3.30
2019-04-16T13:34:26.350Z,3.50
2019-04-16T13:36:59.246Z,3.57
2019-04-16T13:39:48.056Z,2.90
2019-04-16T13:42:17.107Z,3.43
2019-04-16T13:44:52.919Z,3.80
2019-04-16T13:47:21.987Z,3.70
2019-04-16T13:50:13.471Z,3.70
2019-04-16T13:52:42.750Z,4.00
2019-04-16T13:55:34.180Z,3.50
2019-04-16T13:58:17.398Z,3.20
2019-04-16T14:00:50.895Z,3.30
2019-04-16T14:03:20.783Z,3.40
2019-04-16T14:05:51.009Z,3.30
2019-04-16T14:08:20.066Z,3.03
2019-04-16T14:10:49.106Z,2.50
2019-04-16T14:13:18.530Z,3.40
2019-04-16T14:15:47.678Z,2.90
2019-04-16T14:18:16.725Z,3.27
2019-04-16T14:20:45.769Z,3.17
2019-04-16T14:23:14.822Z,3.20
2019-04-16T14:25:43.890Z,3.70
2019-04-16T14:28:12.955Z,3.50
2019-04-16T14:30:46.100Z,3.37
2019-04-16T14:33:20.214Z,3.07
2019-04-16T14:35:49.629Z,3.30
2019-04-16T14:38:25.363Z,2.97
2019-04-16T14:40:55.436Z,3.03
2019-04-16T14:43:30.159Z,3.40
2019-04-16T14:46:00.532Z,2.97
2019-04-16T14:48:29.843Z,3.47
2019-04-16T14:50:58.919Z,3.10
2019-04-16T14:53:59.350Z,3.97
2019-04-16T14:56:40.037Z,4.40
2019-04-16T14:59:29.852Z,2.57
2019-04-16T15:01:53.635Z,2.70
2019-04-16T15:04:44.727Z,2.73
2019-04-16T15:07:19.539Z,3.20
2019-04-16T15:10:01.022Z,3.30
2019-04-16T15:12:42.811Z,2.97
2019-04-16T15:15:33.602Z,3.53
2019-04-16T15:18:26.839Z,3.10
2019-04-16T15:21:23.165Z,3.27
2019-04-16T15:24:23.376Z,3.17
2019-04-16T15:27:14.342Z,2.90
2019-04-16T15:29:56.663Z,2.70
2019-04-16T15:32:44.364Z,3.40
2019-04-16T15:35:17.646Z,4.53
2019-04-16T15:38:01.926Z,3.97
2019-04-16T15:40:39.290Z,3.80
2019-04-16T15:43:22.289Z,3.33
2019-04-16T15:46:25.438Z,3.87
2019-04-16T15:48:51.943Z,3.40
2019-04-16T15:51:36.007Z,3.50
2019-04-16T15:54:22.558Z,4.00
2019-04-16T15:57:16.391Z,4.03
2019-04-16T16:00:04.691Z,3.50
2019-04-16T16:02:55.954Z,3.43
2019-04-16T16:05:34.572Z,3.70
2019-04-16T16:08:20.881Z,3.63
2019-04-16T16:10:56.942Z,4.07
2019-04-16T16:13:26.483Z,3.17
2019-04-16T16:15:56.536Z,3.27
2019-04-16T16:18:25.634Z,3.37
2019-04-16T16:20:54.533Z,3.90
2019-04-16T16:23:23.573Z,3.80
2019-04-16T16:25:52.950Z,3.67
2019-04-16T16:28:21.994Z,3.70
2019-04-16T16:30:51.045Z,3.07
2019-04-16T16:33:20.234Z,3.20
2019-04-16T16:35:57.642Z,3.63
2019-04-16T16:38:21.021Z,3.60
2019-04-16T16:40:50.540Z,4.43
2019-04-16T16:43:19.747Z,3.87
2019-04-16T16:46:26.244Z,3.50
2019-04-16T16:48:55.774Z,4.20
2019-04-16T16:51:24.835Z,3.87
2019-04-16T16:53:58.730Z,4.10
2019-04-16T16:56:40.883Z,3.63
2019-04-16T16:59:32.210Z,3.77
2019-04-16T17:02:13.580Z,3.73
2019-04-16T17:04:45.154Z,4.00
2019-04-16T17:07:17.484Z,3.30
2019-04-16T17:09:45.458Z,3.30
2019-04-16T17:12:14.861Z,3.20
2019-04-16T17:14:43.910Z,3.97
2019-04-16T17:17:15.082Z,3.63
2019-04-16T17:19:43.654Z,3.67
2019-04-16T17:22:14.755Z,3.67
2019-04-16T17:24:43.470Z,3.60
2019-04-16T17:27:12.825Z,3.60
2019-04-16T17:29:42.122Z,3.63
2019-04-16T17:32:11.180Z,3.30
2019-04-16T17:34:40.141Z,3.90
2019-04-16T17:37:09.109Z,4.17
2019-04-16T17:40:00.592Z,3.87
2019-04-16T17:42:36.988Z,4.50
2019-04-16T17:45:21.767Z,4.33
2019-04-16T17:48:10.208Z,4.40
2019-04-16T17:51:13.432Z,3.70
2019-04-16T17:53:52.852Z,3.40
2019-04-16T17:56:39.906Z,3.97
2019-04-16T17:59:12.358Z,3.90
2019-04-16T18:01:59.262Z,3.90
2019-04-16T18:04:46.354Z,3.67
2019-04-16T18:07:33.423Z,3.27
2019-04-16T18:10:13.907Z,4.70
2019-04-16T18:12:55.144Z,4.40
2019-04-16T18:15:42.559Z,4.07
2019-04-16T18:18:19.573Z,4.73
2019-04-16T18:20:58.581Z,4.83
2019-04-16T18:23:47.140Z,5.00
2019-04-16T18:26:38.322Z,4.80
2019-04-16T18:29:24.274Z,5.10
2019-04-16T18:32:01.370Z,5.60
2019-04-16T18:35:05.211Z,5.13
2019-04-16T18:38:02.175Z,5.63
2019-04-16T18:40:45.274Z,5.23
2019-04-16T18:43:36.498Z,5.33
2019-04-16T18:46:19.415Z,7.27
2019-04-16T18:48:49.974Z,6.27
2019-04-16T18:51:18.993Z,5.50
2019-04-16T18:53:47.907Z,6.20
2019-04-16T18:56:17.020Z,6.10
2019-04-16T18:58:46.086Z,5.60
2019-04-16T19:01:24.391Z,5.50
2019-04-16T19:03:51.362Z,4.93
2019-04-16T19:06:20.702Z,5.93
2019-04-16T19:08:49.900Z,5.53
2019-04-16T19:11:20.444Z,5.60
2019-04-16T19:13:49.814Z,5.70
2019-04-16T19:16:18.854Z,5.37
2019-04-16T19:18:47.902Z,4.90
2019-04-16T19:21:16.871Z,4.90
2019-04-16T19:23:45.919Z,6.27
2019-04-16T19:26:15.295Z,5.70
2019-04-16T19:28:45.607Z,5.83
2019-04-16T19:31:14.808Z,5.93
2019-04-16T19:33:43.858Z,4.80
2019-04-16T19:36:13.203Z,5.00
2019-04-16T19:38:42.615Z,5.23
2019-04-16T19:41:12.035Z,5.50
2019-04-16T19:43:41.075Z,5.63
2019-04-16T19:46:15.293Z,6.60
2019-04-16T19:48:41.183Z,5.83
2019-04-16T19:51:10.967Z,6.30
2019-04-16T19:53:39.926Z,5.80
2019-04-16T19:56:08.997Z,5.47
2019-04-16T19:58:38.051Z,6.23
2019-04-16T20:01:07.442Z,6.20
2019-04-16T20:03:36.502Z,6.80
2019-04-16T20:06:05.843Z,6.93
2019-04-16T20:08:39.723Z,6.90
2019-04-16T20:11:05.941Z,6.70
2019-04-16T20:13:35.047Z,6.70
2019-04-16T20:16:04.554Z,6.23
2019-04-16T20:18:33.723Z,6.33
2019-04-16T20:21:02.776Z,7.03
2019-04-16T20:23:31.826Z,6.70
2019-04-16T20:26:01.080Z,7.00
2019-04-16T20:28:30.610Z,7.00
2019-04-16T20:31:03.201Z,8.70
2019-04-16T20:33:30.709Z,7.30
2019-04-16T20:35:59.982Z,7.67
2019-04-16T20:38:30.041Z,8.00
2019-04-16T20:40:59.658Z,6.73
2019-04-16T20:43:28.693Z,8.17
2019-04-16T20:45:57.870Z,7.63
2019-04-16T20:48:27.228Z,9.47
2019-04-16T20:50:59.242Z,8.00
2019-04-16T20:53:27.262Z,8.60
2019-04-16T20:55:56.319Z,9.23
2019-04-16T20:58:30.651Z,8.63
2019-04-16T21:00:58.030Z,9.60
2019-04-16T21:03:30.829Z,9.97
2019-04-16T21:05:59.802Z,9.70
2019-04-16T21:08:29.013Z,11.13
2019-04-16T21:10:59.554Z,10.77
2019-04-16T21:13:29.152Z,10.43
2019-04-16T21:16:01.329Z,10.07
2019-04-16T21:18:29.329Z,10.17
2019-04-16T21:20:58.371Z,9.37
2019-04-16T21:23:27.791Z,7.13
2019-04-16T21:25:56.840Z,7.50
2019-04-16T21:28:45.439Z,9.23
2019-04-16T21:31:25.883Z,9.43
2019-04-16T21:34:16.093Z,9.90
2019-04-16T21:36:58.900Z,9.23
2019-04-16T21:39:33.019Z,10.13
2019-04-16T21:42:03.305Z,10.33
2019-04-16T21:44:33.074Z,11.20
2019-04-16T21:47:02.137Z,10.37
2019-04-16T21:49:38.320Z,9.23
2019-04-16T21:52:06.812Z,10.27
2019-04-16T21:54:36.295Z,11.43
2019-04-16T21:57:05.377Z,10.67
2019-04-16T21:59:34.418Z,11.00
2019-04-16T22:02:08.030Z,9.67
2019-04-16T22:04:37.229Z,9.40
2019-04-16T22:07:08.265Z,10.23
2019-04-16T22:09:38.072Z,8.57
2019-04-16T22:12:07.313Z,9.17
2019-04-16T22:14:36.354Z,10.20
2019-04-16T22:17:05.342Z,9.30
2019-04-16T22:19:34.398Z,9.90
2019-04-16T22:22:04.030Z,10.20
2019-04-16T22:24:33.096Z,8.77
2019-04-16T22:27:06.339Z,9.53
2019-04-16T22:29:33.154Z,9.80
2019-04-16T22:32:02.198Z,9.07
2019-04-16T22:34:31.263Z,9.80
2019-04-16T22:37:00.655Z,9.20
2019-04-16T22:39:35.054Z,9.30
2019-04-16T22:42:22.375Z,9.20
2019-04-16T22:45:07.974Z,8.43
2019-04-16T22:47:37.606Z,8.53
2019-04-16T22:50:16.631Z,8.83
2019-04-16T22:52:37.574Z,8.20
2019-04-16T22:55:06.791Z,8.20
2019-04-16T22:57:36.322Z,8.07
2019-04-16T23:00:12.863Z,8.27
2019-04-16T23:02:40.934Z,6.83
2019-04-16T23:05:10.078Z,6.30
2019-04-16T23:07:39.681Z,6.07
2019-04-16T23:10:09.400Z,5.20
2019-04-16T23:12:38.371Z,6.00
2019-04-16T23:15:09.526Z,7.30
2019-04-16T23:17:38.564Z,6.90
2019-04-16T23:20:07.914Z,7.23
2019-04-16T23:22:36.942Z,6.50
2019-04-16T23:25:06.026Z,6.73
2019-04-16T23:27:37.469Z,6.40
2019-04-16T23:30:06.039Z,6.40
2019-04-16T23:32:35.340Z,6.07
2019-04-16T23:35:09.780Z,6.70
2019-04-16T23:37:35.810Z,6.20
2019-04-16T23:40:07.477Z,5.93
2019-04-16T23:42:37.595Z,5.73
2019-04-16T23:45:31.074Z,5.90
2019-04-16T23:48:03.250Z,6.30
2019-04-16T23:50:45.805Z,6.00
2019-04-16T23:53:39.058Z,5.47
2019-04-16T23:56:27.426Z,5.27
2019-04-16T23:59:04.264Z,5.47
